Time;durP1;ratioP1;P1;durP2;ratioP2;P2;SDS_P1;SDS_P2;PMS_P1;PMS_P2;Temp;Humidity;BMP_temperature;BMP_pressure;BME280_temperature;BME280_humidity;BME280_pressure;Samples;Min_cycle;Max_cycle;Signal;HPM_P1;HPM_P2
2022/08/29 00:00:25;;;;;;;9.20;2.25;;;;;;;;;;5029354;28;20219;-64
2022/08/29 00:02:51;;;;;;;6.80;1.63;;;;;;;;;;5030416;28;20242;-64
2022/08/29 00:05:17;;;;;;;5.20;2.05;;;;;;;;;;5028922;28;20216;-64
2022/08/29 00:07:43;;;;;;;7.70;1.80;;;;;;;;;;5012524;28;20215;-64
2022/08/29 00:10:08;;;;;;;4.22;1.85;;;;;;;;;;5029630;28;20577;-64
2022/08/29 00:12:33;;;;;;;5.63;1.70;;;;;;;;;;5029343;28;20239;-64
2022/08/29 00:14:59;;;;;;;6.00;2.08;;;;;;;;;;5030092;28;20702;-64
2022/08/29 00:17:24;;;;;;;6.28;1.90;;;;;;;;;;5029700;28;20222;-64
2022/08/29 00:19:49;;;;;;;5.90;1.90;;;;;;;;;;5029261;28;20206;-64
2022/08/29 00:22:15;;;;;;;6.57;2.10;;;;;;;;;;5029800;28;20215;-64
2022/08/29 00:24:40;;;;;;;6.80;1.85;;;;;;;;;;5030240;28;20218;-64
2022/08/29 00:27:05;;;;;;;6.03;1.65;;;;;;;;;;5027709;28;20297;-64
2022/08/29 00:29:30;;;;;;;7.38;1.90;;;;;;;;;;5028618;28;20294;-64
2022/08/29 00:31:56;;;;;;;6.47;1.58;;;;;;;;;;5030075;28;20212;-64
2022/08/29 00:34:21;;;;;;;5.80;1.80;;;;;;;;;;5028539;28;20250;-64
2022/08/29 00:36:46;;;;;;;9.30;1.90;;;;;;;;;;5021792;28;20204;-64
2022/08/29 00:39:12;;;;;;;7.20;1.90;;;;;;;;;;5019374;28;20439;-64
2022/08/29 00:41:37;;;;;;;10.32;2.28;;;;;;;;;;5017452;28;20223;-63
2022/08/29 00:44:03;;;;;;;7.57;2.70;;;;;;;;;;5015809;28;20532;-64
2022/08/29 00:46:37;;;;;;;20.67;6.95;;;;;;;;;;4995381;28;20792;-64
2022/08/29 00:49:04;;;;;;;14.43;4.43;;;;;;;;;;4999474;28;20215;-64
2022/08/29 00:51:29;;;;;;;8.80;2.72;;;;;;;;;;5005041;28;20222;-64
2022/08/29 00:53:57;;;;;;;6.97;1.98;;;;;;;;;;4996368;28;20216;-64
2022/08/29 00:56:22;;;;;;;5.25;1.85;;;;;;;;;;5004991;28;20293;-64
2022/08/29 00:58:49;;;;;;;7.47;1.90;;;;;;;;;;4986355;28;20265;-64
2022/08/29 01:01:14;;;;;;;5.50;1.70;;;;;;;;;;5004064;28;20254;-64
2022/08/29 01:03:40;;;;;;;7.93;1.60;;;;;;;;;;5005250;28;20216;-63
2022/08/29 01:06:05;;;;;;;4.10;1.60;;;;;;;;;;5016377;28;20242;-63
2022/08/29 01:08:31;;;;;;;6.07;1.90;;;;;;;;;;4997118;28;20219;-63
2022/08/29 01:13:40;;;;;;;4.63;1.92;;;;;;;;;;5007394;28;20266;-63
2022/08/29 01:16:06;;;;;;;4.57;1.80;;;;;;;;;;5003544;28;20576;-63
2022/08/29 01:18:32;;;;;;;10.73;1.73;;;;;;;;;;5002257;28;20215;-63
2022/08/29 01:21:12;;;;;;;7.07;1.70;;;;;;;;;;4985799;28;20216;-63
2022/08/29 01:23:41;;;;;;;6.43;1.80;;;;;;;;;;5004079;28;20214;-63
2022/08/29 01:26:06;;;;;;;6.13;1.88;;;;;;;;;;5022437;28;20317;-63
2022/08/29 01:28:33;;;;;;;7.60;1.90;;;;;;;;;;4999238;28;20299;-63
2022/08/29 01:31:05;;;;;;;6.32;2.00;;;;;;;;;;4994015;28;20223;-63
2022/08/29 01:33:43;;;;;;;5.53;1.75;;;;;;;;;;5015044;28;20601;-63
2022/08/29 01:36:09;;;;;;;5.10;1.85;;;;;;;;;;5002610;28;20211;-63
2022/08/29 01:38:35;;;;;;;5.50;1.90;;;;;;;;;;5005875;28;20206;-63
2022/08/29 01:41:01;;;;;;;7.65;2.30;;;;;;;;;;5003067;28;20228;-63
2022/08/29 01:43:26;;;;;;;6.05;1.95;;;;;;;;;;5002260;28;20307;-63
2022/08/29 01:45:52;;;;;;;7.22;1.90;;;;;;;;;;5019894;28;20303;-63
2022/08/29 01:48:17;;;;;;;7.10;2.03;;;;;;;;;;5021914;28;20246;-63
2022/08/29 01:50:43;;;;;;;6.97;1.98;;;;;;;;;;5017521;28;20235;-63
2022/08/29 01:53:08;;;;;;;4.95;1.77;;;;;;;;;;4995001;28;20231;-64
2022/08/29 01:55:33;;;;;;;4.97;1.90;;;;;;;;;;4995610;28;20324;-63
2022/08/29 01:57:59;;;;;;;7.97;1.90;;;;;;;;;;4999254;28;20230;-63
2022/08/29 02:00:24;;;;;;;8.82;2.03;;;;;;;;;;5002226;28;21214;-63
2022/08/29 02:02:50;;;;;;;7.32;2.10;;;;;;;;;;5002747;28;20205;-63
2022/08/29 02:05:15;;;;;;;7.45;2.25;;;;;;;;;;5001556;28;20617;-63
2022/08/29 02:07:40;;;;;;;6.35;2.40;;;;;;;;;;5017364;28;20219;-63
2022/08/29 02:10:06;;;;;;;8.63;2.25;;;;;;;;;;5021260;28;20565;-63
2022/08/29 02:12:31;;;;;;;8.45;2.40;;;;;;;;;;5019206;28;20657;-63
2022/08/29 02:14:57;;;;;;;7.93;2.38;;;;;;;;;;5014963;28;20297;-63
2022/08/29 02:17:23;;;;;;;8.00;2.38;;;;;;;;;;4995894;28;20218;-63
2022/08/29 02:19:48;;;;;;;9.80;2.35;;;;;;;;;;4998069;28;20555;-63
2022/08/29 02:22:13;;;;;;;6.82;2.35;;;;;;;;;;5002029;28;20232;-63
2022/08/29 02:24:38;;;;;;;5.80;2.53;;;;;;;;;;5002484;28;20267;-63
2022/08/29 02:27:04;;;;;;;7.68;2.40;;;;;;;;;;5017684;28;20216;-63
2022/08/29 02:29:29;;;;;;;7.47;2.35;;;;;;;;;;5021775;28;20215;-63
2022/08/29 02:31:54;;;;;;;6.18;2.50;;;;;;;;;;5013876;28;20274;-63
2022/08/29 02:34:20;;;;;;;9.00;2.47;;;;;;;;;;5021186;28;20644;-63
2022/08/29 02:36:45;;;;;;;9.82;2.40;;;;;;;;;;5012315;28;20223;-63
2022/08/29 02:39:10;;;;;;;6.15;2.53;;;;;;;;;;4993251;28;20212;-63
2022/08/29 02:41:36;;;;;;;6.88;2.55;;;;;;;;;;4976850;28;20239;-63
2022/08/29 02:44:01;;;;;;;7.70;2.50;;;;;;;;;;4985504;28;20286;-63
2022/08/29 02:46:27;;;;;;;8.38;2.70;;;;;;;;;;5020546;28;20223;-63
2022/08/29 02:48:53;;;;;;;8.93;2.97;;;;;;;;;;5021554;28;20215;-63
2022/08/29 02:51:19;;;;;;;9.60;2.67;;;;;;;;;;5016424;28;20215;-63
2022/08/29 02:53:44;;;;;;;7.60;2.80;;;;;;;;;;4998907;28;20209;-63
2022/08/29 02:56:09;;;;;;;6.57;2.75;;;;;;;;;;5001120;28;20699;-63
2022/08/29 02:58:35;;;;;;;9.05;3.30;;;;;;;;;;4997661;28;20459;-62
2022/08/29 03:01:00;;;;;;;6.40;2.80;;;;;;;;;;4993198;28;20225;-64
2022/08/29 03:03:26;;;;;;;6.78;2.90;;;;;;;;;;4993817;28;20205;-63
2022/08/29 03:05:53;;;;;;;8.90;2.70;;;;;;;;;;5017502;28;20223;-63
2022/08/29 03:08:19;;;;;;;6.28;2.92;;;;;;;;;;5002209;28;20219;-63
2022/08/29 03:10:44;;;;;;;7.55;3.08;;;;;;;;;;5020909;28;20595;-62
2022/08/29 03:13:09;;;;;;;8.48;3.10;;;;;;;;;;5020634;28;20211;-62
2022/08/29 03:15:35;;;;;;;7.97;3.10;;;;;;;;;;5020363;28;20211;-63
2022/08/29 03:18:00;;;;;;;6.93;2.92;;;;;;;;;;5005895;28;20231;-62
2022/08/29 03:20:25;;;;;;;8.38;3.42;;;;;;;;;;4980871;28;20228;-63
2022/08/29 03:22:52;;;;;;;6.22;3.10;;;;;;;;;;4993788;28;20220;-63
2022/08/29 03:25:18;;;;;;;6.32;3.17;;;;;;;;;;4993165;28;20412;-63
2022/08/29 03:27:43;;;;;;;9.75;3.55;;;;;;;;;;4980807;28;20219;-62
2022/08/29 03:30:10;;;;;;;8.32;3.45;;;;;;;;;;5014465;28;20312;-63
2022/08/29 03:32:35;;;;;;;7.10;3.50;;;;;;;;;;5002402;28;20298;-63
2022/08/29 03:35:01;;;;;;;7.25;3.60;;;;;;;;;;5020338;28;20315;-63
2022/08/29 03:37:26;;;;;;;8.98;3.60;;;;;;;;;;5012003;28;20694;-62
2022/08/29 03:39:52;;;;;;;7.75;2.90;;;;;;;;;;4983293;28;20212;-62
2022/08/29 03:42:17;;;;;;;7.97;3.15;;;;;;;;;;4999844;28;20228;-62
2022/08/29 03:44:42;;;;;;;7.75;3.60;;;;;;;;;;5001733;28;20562;-62
2022/08/29 03:47:08;;;;;;;9.18;3.40;;;;;;;;;;4994424;28;20220;-62
2022/08/29 03:49:33;;;;;;;9.10;3.67;;;;;;;;;;5012524;28;20686;-62
2022/08/29 03:51:59;;;;;;;9.55;3.53;;;;;;;;;;5001714;28;20576;-62
2022/08/29 03:54:24;;;;;;;7.60;3.60;;;;;;;;;;5002162;28;20265;-63
2022/08/29 03:56:49;;;;;;;7.97;3.47;;;;;;;;;;5001705;28;20223;-63
2022/08/29 03:59:15;;;;;;;7.43;3.45;;;;;;;;;;5019971;28;20233;-63
2022/08/29 04:01:40;;;;;;;8.65;3.88;;;;;;;;;;5002243;28;20284;-62
2022/08/29 04:04:05;;;;;;;7.70;3.42;;;;;;;;;;5019079;28;20313;-62
2022/08/29 04:06:32;;;;;;;8.38;4.00;;;;;;;;;;5016627;28;20203;-62
2022/08/29 04:08:58;;;;;;;7.18;3.53;;;;;;;;;;4995062;28;20216;-62
2022/08/29 04:11:23;;;;;;;7.40;3.65;;;;;;;;;;5011534;28;20459;-63
2022/08/29 04:13:49;;;;;;;8.07;3.80;;;;;;;;;;5016521;28;20215;-62
2022/08/29 04:16:15;;;;;;;7.60;3.47;;;;;;;;;;5001337;28;20230;-63
2022/08/29 04:18:40;;;;;;;11.40;4.32;;;;;;;;;;4988973;28;20683;-63
2022/08/29 04:21:06;;;;;;;7.05;3.55;;;;;;;;;;5022827;28;20239;-63
2022/08/29 04:23:32;;;;;;;9.82;3.70;;;;;;;;;;5024283;28;20220;-63
2022/08/29 04:25:57;;;;;;;8.13;4.18;;;;;;;;;;5023362;28;20207;-62
2022/08/29 04:28:22;;;;;;;10.35;3.83;;;;;;;;;;5023738;28;20781;-63
2022/08/29 04:30:48;;;;;;;8.65;4.03;;;;;;;;;;5006903;28;20258;-62
2022/08/29 04:33:13;;;;;;;8.30;3.85;;;;;;;;;;4977834;28;20774;-62
2022/08/29 04:35:39;;;;;;;19.45;4.97;;;;;;;;;;4979279;28;20208;-62
2022/08/29 04:38:05;;;;;;;8.68;3.88;;;;;;;;;;5004013;28;20208;-63
2022/08/29 04:40:30;;;;;;;8.50;4.00;;;;;;;;;;4985440;28;20231;-62
2022/08/29 04:42:58;;;;;;;9.85;4.30;;;;;;;;;;5004352;28;20213;-62
2022/08/29 04:45:23;;;;;;;9.55;3.70;;;;;;;;;;5022994;28;20226;-63
2022/08/29 04:47:49;;;;;;;8.18;3.97;;;;;;;;;;4985860;28;20227;-62
2022/08/29 04:50:15;;;;;;;10.20;3.80;;;;;;;;;;5003890;28;20220;-62
2022/08/29 04:52:41;;;;;;;7.40;3.55;;;;;;;;;;5001667;28;20284;-62
2022/08/29 04:55:07;;;;;;;15.50;4.65;;;;;;;;;;5007801;28;20303;-63
2022/08/29 04:57:33;;;;;;;12.05;4.63;;;;;;;;;;5015877;28;20212;-62
2022/08/29 04:59:58;;;;;;;9.55;3.83;;;;;;;;;;5020577;28;20236;-62
2022/08/29 05:02:23;;;;;;;10.05;3.83;;;;;;;;;;5022981;28;20832;-62
2022/08/29 05:04:55;;;;;;;10.75;3.63;;;;;;;;;;5023146;28;20573;-62
2022/08/29 05:07:21;;;;;;;8.75;4.65;;;;;;;;;;5017214;28;20247;-63
2022/08/29 05:09:48;;;;;;;8.43;3.70;;;;;;;;;;5004935;28;20671;-62
2022/08/29 05:12:13;;;;;;;9.75;3.53;;;;;;;;;;4995451;28;20247;-62
2022/08/29 05:14:38;;;;;;;9.45;3.90;;;;;;;;;;5012407;28;20236;-63
2022/08/29 05:17:04;;;;;;;9.20;3.60;;;;;;;;;;5013082;28;20807;-62
2022/08/29 05:19:29;;;;;;;11.70;3.72;;;;;;;;;;5007300;28;20577;-63
2022/08/29 05:21:56;;;;;;;10.73;3.47;;;;;;;;;;5001373;28;20711;-64
2022/08/29 05:24:22;;;;;;;7.60;3.78;;;;;;;;;;5001751;28;20414;-64
2022/08/29 05:26:47;;;;;;;10.23;3.75;;;;;;;;;;5003909;28;20209;-64
2022/08/29 05:29:12;;;;;;;8.40;3.55;;;;;;;;;;4999805;28;20699;-63
2022/08/29 05:31:39;;;;;;;8.77;3.58;;;;;;;;;;5002334;28;20213;-63
2022/08/29 05:34:05;;;;;;;9.02;3.78;;;;;;;;;;5001902;28;20213;-62
2022/08/29 05:36:32;;;;;;;8.38;3.40;;;;;;;;;;4985627;28;20205;-63
2022/08/29 05:38:58;;;;;;;8.80;3.55;;;;;;;;;;5003347;28;20204;-63
2022/08/29 05:41:24;;;;;;;7.95;3.60;;;;;;;;;;5002358;28;20241;-63
2022/08/29 05:43:49;;;;;;;9.70;3.47;;;;;;;;;;5000600;28;20206;-64
2022/08/29 05:46:14;;;;;;;10.13;3.50;;;;;;;;;;5003115;28;20291;-63
2022/08/29 05:48:40;;;;;;;8.15;3.28;;;;;;;;;;5002473;28;20215;-63
2022/08/29 05:51:06;;;;;;;12.15;3.70;;;;;;;;;;5002871;28;20572;-62
2022/08/29 05:53:33;;;;;;;8.68;3.72;;;;;;;;;;5004451;28;20232;-63
2022/08/29 05:55:58;;;;;;;8.20;3.30;;;;;;;;;;5006873;28;20441;-63
2022/08/29 05:58:24;;;;;;;7.28;2.92;;;;;;;;;;5001857;28;20213;-63
2022/08/29 06:00:49;;;;;;;9.23;3.05;;;;;;;;;;4983935;28;20224;-63
2022/08/29 06:03:15;;;;;;;7.45;3.22;;;;;;;;;;5002059;28;20236;-63
2022/08/29 06:05:40;;;;;;;8.37;3.20;;;;;;;;;;4979216;28;20431;-63
2022/08/29 06:08:06;;;;;;;7.47;2.78;;;;;;;;;;5011880;28;20346;-64
2022/08/29 06:10:31;;;;;;;6.47;3.10;;;;;;;;;;5006249;28;20295;-62
2022/08/29 06:12:57;;;;;;;8.10;3.05;;;;;;;;;;4972373;28;20213;-62
2022/08/29 06:15:22;;;;;;;7.00;2.80;;;;;;;;;;4996023;28;20492;-62
2022/08/29 06:17:48;;;;;;;6.47;2.70;;;;;;;;;;4981630;28;20593;-62
2022/08/29 06:20:14;;;;;;;8.07;2.83;;;;;;;;;;4983124;28;20200;-63
2022/08/29 06:22:39;;;;;;;8.05;2.83;;;;;;;;;;5003755;28;20647;-62
2022/08/29 06:25:05;;;;;;;7.40;2.72;;;;;;;;;;5001835;28;20208;-62
2022/08/29 06:27:30;;;;;;;8.10;2.60;;;;;;;;;;4998463;28;20658;-62
2022/08/29 06:29:56;;;;;;;8.00;2.60;;;;;;;;;;5004366;28;20287;-62
2022/08/29 06:32:21;;;;;;;8.65;3.13;;;;;;;;;;5001799;28;20270;-62
2022/08/29 06:34:46;;;;;;;8.13;2.85;;;;;;;;;;4985706;28;20212;-63
2022/08/29 06:37:12;;;;;;;8.40;2.97;;;;;;;;;;5003332;28;20212;-62
2022/08/29 06:39:37;;;;;;;9.18;2.92;;;;;;;;;;5002430;28;20204;-62
2022/08/29 06:42:02;;;;;;;5.70;2.90;;;;;;;;;;5002332;28;20300;-62
2022/08/29 06:44:30;;;;;;;7.30;3.42;;;;;;;;;;5003753;28;20578;-62
2022/08/29 06:46:55;;;;;;;9.18;3.00;;;;;;;;;;5000308;28;20216;-62
2022/08/29 06:49:21;;;;;;;8.32;3.20;;;;;;;;;;4983762;28;20517;-62
2022/08/29 06:51:49;;;;;;;10.98;3.03;;;;;;;;;;5003686;28;20284;-62
2022/08/29 06:54:14;;;;;;;6.40;2.38;;;;;;;;;;5002525;28;20222;-63
2022/08/29 06:56:40;;;;;;;12.38;3.65;;;;;;;;;;5003226;28;20718;-62
2022/08/29 06:59:05;;;;;;;6.03;2.70;;;;;;;;;;5002820;28;20212;-62
2022/08/29 07:01:30;;;;;;;8.85;3.10;;;;;;;;;;4984926;28;20712;-62
2022/08/29 07:03:56;;;;;;;6.97;3.00;;;;;;;;;;5003367;28;20218;-62
2022/08/29 07:06:22;;;;;;;9.55;3.08;;;;;;;;;;4985236;28;20674;-62
2022/08/29 07:08:47;;;;;;;7.78;2.80;;;;;;;;;;4986581;28;20307;-62
2022/08/29 07:11:12;;;;;;;9.07;2.65;;;;;;;;;;5003131;28;20375;-62
2022/08/29 07:13:38;;;;;;;7.13;2.78;;;;;;;;;;5002943;28;20244;-62
2022/08/29 07:16:06;;;;;;;6.47;2.78;;;;;;;;;;5003244;28;20627;-62
2022/08/29 07:18:32;;;;;;;7.45;2.88;;;;;;;;;;4975735;28;20215;-62
2022/08/29 07:20:57;;;;;;;6.82;2.63;;;;;;;;;;4984085;28;20316;-62
2022/08/29 07:23:22;;;;;;;9.52;3.33;;;;;;;;;;5002647;28;20212;-62
2022/08/29 07:25:48;;;;;;;9.70;2.80;;;;;;;;;;5003044;28;20660;-62
2022/08/29 07:28:13;;;;;;;7.47;2.80;;;;;;;;;;5001738;28;20412;-62
2022/08/29 07:30:38;;;;;;;9.88;3.25;;;;;;;;;;5001930;28;20204;-62
2022/08/29 07:33:04;;;;;;;7.40;2.72;;;;;;;;;;5002713;28;20216;-62
2022/08/29 07:35:29;;;;;;;6.70;2.72;;;;;;;;;;5000853;28;20304;-62
2022/08/29 07:37:55;;;;;;;8.98;2.80;;;;;;;;;;5003160;28;20208;-62
2022/08/29 07:40:20;;;;;;;6.22;2.90;;;;;;;;;;5001818;28;20235;-62
2022/08/29 07:42:46;;;;;;;8.90;3.15;;;;;;;;;;5002389;28;20613;-63
2022/08/29 07:45:11;;;;;;;7.15;2.67;;;;;;;;;;5002747;28;20504;-62
2022/08/29 07:47:37;;;;;;;8.70;2.70;;;;;;;;;;5003501;28;20619;-68
2022/08/29 07:50:03;;;;;;;7.40;2.95;;;;;;;;;;5002008;28;20208;-66
2022/08/29 07:52:29;;;;;;;6.70;2.60;;;;;;;;;;5001204;28;20243;-66
2022/08/29 07:54:54;;;;;;;9.30;3.28;;;;;;;;;;5001395;28;20423;-67
2022/08/29 07:57:19;;;;;;;8.63;2.63;;;;;;;;;;5002248;28;20216;-66
2022/08/29 07:59:45;;;;;;;5.93;2.20;;;;;;;;;;5003226;28;20676;-66
2022/08/29 08:02:11;;;;;;;8.82;2.22;;;;;;;;;;5003069;28;20306;-66
2022/08/29 08:04:37;;;;;;;11.00;2.70;;;;;;;;;;5002105;28;20232;-66
2022/08/29 08:07:02;;;;;;;9.73;2.50;;;;;;;;;;5002331;28;20545;-66
2022/08/29 08:09:27;;;;;;;7.57;2.47;;;;;;;;;;5003092;28;20671;-66
2022/08/29 08:11:53;;;;;;;8.55;2.33;;;;;;;;;;5002705;28;20228;-66
2022/08/29 08:14:18;;;;;;;6.43;2.55;;;;;;;;;;5002165;28;20224;-66
2022/08/29 08:16:44;;;;;;;6.43;2.25;;;;;;;;;;5002277;28;20263;-66
2022/08/29 08:19:09;;;;;;;8.40;2.53;;;;;;;;;;5001929;28;20204;-66
2022/08/29 08:21:34;;;;;;;11.02;2.55;;;;;;;;;;5002366;28;20299;-66
2022/08/29 08:24:00;;;;;;;7.78;2.45;;;;;;;;;;5002124;28;20683;-66
2022/08/29 08:26:25;;;;;;;8.30;2.28;;;;;;;;;;5001892;28;20216;-66
2022/08/29 08:28:51;;;;;;;6.68;2.35;;;;;;;;;;5002554;28;20220;-67
2022/08/29 08:31:16;;;;;;;8.80;2.22;;;;;;;;;;5001081;28;20227;-66
2022/08/29 08:33:43;;;;;;;6.20;1.83;;;;;;;;;;5000967;28;20648;-67
2022/08/29 08:36:16;;;;;;;7.35;2.03;;;;;;;;;;5002040;28;20209;-66
2022/08/29 08:38:42;;;;;;;6.28;2.00;;;;;;;;;;5015442;28;20211;-67
2022/08/29 08:41:17;;;;;;;5.00;1.83;;;;;;;;;;5019613;28;20258;-67
2022/08/29 08:43:47;;;;;;;5.30;1.73;;;;;;;;;;5021360;28;20292;-67
2022/08/29 08:46:13;;;;;;;7.97;2.10;;;;;;;;;;5021798;28;20350;-67
2022/08/29 08:48:38;;;;;;;8.57;1.83;;;;;;;;;;5021377;28;20287;-66
2022/08/29 08:51:06;;;;;;;6.53;1.85;;;;;;;;;;5020024;28;20211;-66
2022/08/29 08:53:33;;;;;;;6.95;2.50;;;;;;;;;;5021536;28;20224;-66
2022/08/29 08:56:00;;;;;;;10.50;2.22;;;;;;;;;;5004058;28;20211;-66
2022/08/29 08:58:32;;;;;;;10.32;2.75;;;;;;;;;;5004434;28;20770;-66
2022/08/29 09:00:59;;;;;;;9.55;2.90;;;;;;;;;;5020897;28;20721;-66
2022/08/29 09:03:32;;;;;;;7.68;2.45;;;;;;;;;;5022405;28;20913;-66
2022/08/29 09:06:05;;;;;;;7.50;2.40;;;;;;;;;;5024625;28;20211;-67
2022/08/29 09:08:30;;;;;;;7.38;2.10;;;;;;;;;;5025253;28;20208;-66
2022/08/29 09:11:06;;;;;;;9.57;2.30;;;;;;;;;;5025426;28;20207;-66
2022/08/29 09:13:35;;;;;;;7.18;2.50;;;;;;;;;;4991762;28;20257;-67
2022/08/29 09:16:01;;;;;;;6.93;2.60;;;;;;;;;;4987492;28;20243;-63
2022/08/29 09:18:27;;;;;;;6.35;2.17;;;;;;;;;;5006713;28;20214;-67
2022/08/29 09:20:53;;;;;;;9.20;3.13;;;;;;;;;;5024965;28;20223;-66
2022/08/29 09:23:26;;;;;;;6.68;2.30;;;;;;;;;;5007548;28;20609;-67
2022/08/29 09:25:51;;;;;;;6.95;2.40;;;;;;;;;;5006737;28;20792;-67
2022/08/29 09:28:16;;;;;;;5.90;2.30;;;;;;;;;;5024442;28;20231;-69
2022/08/29 09:30:43;;;;;;;9.98;2.70;;;;;;;;;;5024738;28;20866;-69
2022/08/29 09:33:14;;;;;;;7.13;2.35;;;;;;;;;;5006969;28;20228;-68
2022/08/29 09:35:39;;;;;;;5.28;2.10;;;;;;;;;;5007466;28;20647;-69
2022/08/29 09:38:05;;;;;;;6.25;2.30;;;;;;;;;;5030292;28;20218;-69
2022/08/29 09:40:41;;;;;;;7.07;2.25;;;;;;;;;;5024682;28;20293;-68
2022/08/29 09:43:06;;;;;;;10.02;2.28;;;;;;;;;;5022721;28;20210;-68
2022/08/29 09:45:32;;;;;;;7.55;2.40;;;;;;;;;;5025079;28;20220;-69
2022/08/29 09:48:08;;;;;;;5.57;2.05;;;;;;;;;;5023621;28;20528;-69
2022/08/29 09:50:34;;;;;;;5.93;1.88;;;;;;;;;;5024443;28;20206;-69
2022/08/29 09:53:00;;;;;;;6.93;1.73;;;;;;;;;;5006627;28;20739;-69
2022/08/29 09:55:26;;;;;;;7.88;1.70;;;;;;;;;;5022809;28;20492;-69
2022/08/29 09:57:54;;;;;;;9.85;2.40;;;;;;;;;;5025135;28;20766;-69
2022/08/29 10:00:24;;;;;;;9.55;2.13;;;;;;;;;;5005818;28;20647;-69
2022/08/29 10:02:51;;;;;;;5.13;2.00;;;;;;;;;;5006030;28;20219;-69
2022/08/29 10:05:33;;;;;;;6.65;1.80;;;;;;;;;;5006958;28;20273;-69
2022/08/29 10:07:59;;;;;;;10.80;2.10;;;;;;;;;;5006671;28;20240;-69
2022/08/29 10:10:26;;;;;;;8.48;2.33;;;;;;;;;;5022799;28;20683;-69
2022/08/29 10:13:09;;;;;;;6.88;2.15;;;;;;;;;;5006511;28;20211;-69
2022/08/29 10:15:38;;;;;;;5.53;2.00;;;;;;;;;;5006244;28;20211;-69
2022/08/29 10:18:19;;;;;;;6.10;1.60;;;;;;;;;;5018454;28;20204;-70
2022/08/29 10:20:49;;;;;;;11.75;2.55;;;;;;;;;;5023539;28;20258;-70
2022/08/29 10:23:19;;;;;;;10.75;2.10;;;;;;;;;;5005095;28;20342;-69
2022/08/29 10:25:44;;;;;;;4.93;2.13;;;;;;;;;;5006166;28;20295;-71
2022/08/29 10:28:19;;;;;;;8.25;2.10;;;;;;;;;;5005761;28;20557;-69
2022/08/29 10:30:44;;;;;;;9.13;2.40;;;;;;;;;;5005629;28;20210;-70
2022/08/29 10:33:10;;;;;;;4.03;1.67;;;;;;;;;;5023482;28;20212;-68
2022/08/29 10:35:38;;;;;;;5.95;2.38;;;;;;;;;;5024316;28;20204;-69
2022/08/29 10:38:07;;;;;;;11.52;2.20;;;;;;;;;;5005330;28;20698;-69
2022/08/29 10:40:38;;;;;;;7.47;2.00;;;;;;;;;;5006442;28;20220;-69
2022/08/29 10:43:15;;;;;;;8.40;2.15;;;;;;;;;;5023158;28;20215;-69
2022/08/29 10:45:49;;;;;;;6.72;2.20;;;;;;;;;;5004899;28;20251;-70
2022/08/29 10:48:18;;;;;;;7.18;2.65;;;;;;;;;;4989452;28;20211;-69
2022/08/29 10:50:46;;;;;;;8.82;2.53;;;;;;;;;;5006018;28;20221;-69
2022/08/29 10:53:17;;;;;;;5.63;2.05;;;;;;;;;;4985111;28;20616;-69
2022/08/29 10:55:46;;;;;;;7.18;2.10;;;;;;;;;;4985977;28;20312;-69
2022/08/29 10:58:16;;;;;;;7.07;2.47;;;;;;;;;;5001803;28;20656;-69
2022/08/29 11:00:47;;;;;;;6.90;2.40;;;;;;;;;;4985442;28;20232;-69
2022/08/29 11:03:21;;;;;;;8.50;2.58;;;;;;;;;;4985260;28;20224;-69
2022/08/29 11:05:53;;;;;;;11.50;2.40;;;;;;;;;;5002977;28;20224;-69
2022/08/29 11:08:20;;;;;;;7.88;2.45;;;;;;;;;;4985050;28;20788;-69
2022/08/29 11:10:48;;;;;;;7.53;3.00;;;;;;;;;;4985710;28;20235;-67
2022/08/29 11:13:23;;;;;;;6.57;2.28;;;;;;;;;;5002332;28;20220;-69
2022/08/29 11:15:51;;;;;;;11.05;2.67;;;;;;;;;;4998563;28;20227;-70
2022/08/29 11:18:18;;;;;;;6.43;2.85;;;;;;;;;;5022074;28;20239;-69
2022/08/29 11:20:45;;;;;;;9.05;2.75;;;;;;;;;;5021886;28;20236;-69
2022/08/29 11:23:14;;;;;;;7.20;2.30;;;;;;;;;;5022437;28;20448;-69
2022/08/29 11:25:40;;;;;;;7.72;2.20;;;;;;;;;;4988290;28;20208;-69
2022/08/29 11:28:14;;;;;;;10.30;2.70;;;;;;;;;;5021041;28;20619;-68
2022/08/29 11:30:41;;;;;;;8.88;3.03;;;;;;;;;;5004806;28;20269;-69
2022/08/29 11:33:12;;;;;;;7.78;2.65;;;;;;;;;;5004639;28;20655;-68
2022/08/29 11:35:48;;;;;;;6.70;2.58;;;;;;;;;;4987888;28;20603;-69
2022/08/29 11:38:16;;;;;;;6.05;2.30;;;;;;;;;;5022277;28;20292;-69
2022/08/29 11:40:50;;;;;;;6.25;2.28;;;;;;;;;;5022031;28;20269;-70
2022/08/29 11:45:39;;;;;;;0.20;0.20;;;;;;;;;;5052878;27;21158;-77
2022/08/29 11:48:14;;;;;;;0.13;0.13;;;;;;;;;;5037560;28;20663;-77
2022/08/29 11:50:40;;;;;;;0.43;0.38;;;;;;;;;;5039728;28;20300;-75
2022/08/29 11:53:21;;;;;;;1.75;0.57;;;;;;;;;;5039611;28;20211;-77
2022/08/29 11:56:11;;;;;;;0.10;0.10;;;;;;;;;;5037612;28;20706;-76
2022/08/29 11:58:38;;;;;;;0.55;0.32;;;;;;;;;;5038974;28;20616;-76
2022/08/29 12:01:05;;;;;;;0.32;0.17;;;;;;;;;;5038820;28;20554;-75
2022/08/29 12:03:30;;;;;;;0.00;0.00;;;;;;;;;;5037360;28;20223;-75
2022/08/29 12:05:58;;;;;;;0.38;0.35;;;;;;;;;;5039450;28;20863;-75
2022/08/29 12:08:30;;;;;;;0.10;0.10;;;;;;;;;;5037765;28;20211;-75
2022/08/29 12:10:55;;;;;;;0.20;0.20;;;;;;;;;;5038007;28;20215;-74
2022/08/29 12:13:39;;;;;;;0.20;0.20;;;;;;;;;;5039634;28;20714;-74
2022/08/29 12:16:06;;;;;;;0.13;0.13;;;;;;;;;;5038223;28;20522;-73
2022/08/29 12:18:33;;;;;;;0.20;0.20;;;;;;;;;;5020014;28;20218;-73
2022/08/29 12:21:01;;;;;;;0.28;0.28;;;;;;;;;;5051494;28;20215;-73
2022/08/29 12:23:29;;;;;;;0.45;0.45;;;;;;;;;;5050070;28;20210;-72
2022/08/29 12:25:55;;;;;;;0.22;0.22;;;;;;;;;;5057955;28;20302;-73
2022/08/29 12:28:20;;;;;;;0.10;0.10;;;;;;;;;;5057056;28;20301;-72
2022/08/29 12:33:53;;;;;;;0.10;0.10;;;;;;;;;;5058767;28;20349;-72
2022/08/29 12:36:25;;;;;;;0.15;0.15;;;;;;;;;;5057161;28;20593;-72
2022/08/29 12:38:57;;;;;;;0.28;0.22;;;;;;;;;;5018094;28;20270;-72
2022/08/29 12:41:31;;;;;;;1.00;0.65;;;;;;;;;;5019389;28;20374;-73
2022/08/29 12:43:58;;;;;;;0.20;0.20;;;;;;;;;;5016878;28;20258;-72
2022/08/29 12:46:25;;;;;;;0.30;0.30;;;;;;;;;;5017142;28;20219;-72
2022/08/29 12:48:52;;;;;;;0.22;0.22;;;;;;;;;;5017542;28;20216;-73
2022/08/29 12:51:31;;;;;;;0.22;0.22;;;;;;;;;;5020607;28;20234;-71
2022/08/29 12:53:56;;;;;;;0.20;0.20;;;;;;;;;;5039161;28;20215;-72
2022/08/29 12:56:22;;;;;;;0.57;0.57;;;;;;;;;;5028186;28;20648;-72
2022/08/29 12:58:50;;;;;;;0.43;0.43;;;;;;;;;;5025145;28;20679;-72
2022/08/29 13:01:20;;;;;;;0.00;0.00;;;;;;;;;;5018074;28;20240;-71
2022/08/29 13:03:56;;;;;;;0.22;0.22;;;;;;;;;;5000721;28;20548;-72
2022/08/29 13:06:21;;;;;;;0.38;0.38;;;;;;;;;;5006269;28;20234;-73
2022/08/29 13:08:47;;;;;;;0.40;0.40;;;;;;;;;;5013442;28;20238;-73
2022/08/29 13:11:12;;;;;;;0.10;0.10;;;;;;;;;;5012742;28;20255;-72
2022/08/29 13:13:37;;;;;;;0.60;0.60;;;;;;;;;;4998327;28;20267;-73
2022/08/29 13:16:04;;;;;;;0.75;0.50;;;;;;;;;;4999818;28;20212;-73
2022/08/29 13:18:30;;;;;;;0.10;0.10;;;;;;;;;;5000100;28;20618;-74
2022/08/29 13:21:02;;;;;;;0.73;0.50;;;;;;;;;;5009614;28;20203;-73
2022/08/29 13:23:29;;;;;;;0.35;0.35;;;;;;;;;;4997945;28;20315;-74
2022/08/29 13:25:58;;;;;;;0.20;0.20;;;;;;;;;;4996762;28;20429;-74
2022/08/29 13:28:27;;;;;;;0.52;0.32;;;;;;;;;;4992676;28;20579;-74
2022/08/29 13:31:02;;;;;;;0.70;0.57;;;;;;;;;;4993649;28;20223;-74
2022/08/29 13:33:27;;;;;;;0.15;0.15;;;;;;;;;;4996818;28;20220;-74
2022/08/29 13:35:52;;;;;;;0.80;0.63;;;;;;;;;;4999726;28;20688;-74
2022/08/29 13:38:19;;;;;;;0.22;0.22;;;;;;;;;;5018016;28;20230;-74
2022/08/29 13:40:46;;;;;;;0.63;0.60;;;;;;;;;;4984372;28;20223;-73
2022/08/29 13:43:28;;;;;;;0.30;0.30;;;;;;;;;;5017433;28;20227;-72
2022/08/29 13:46:00;;;;;;;3.90;0.38;;;;;;;;;;5016541;28;20756;-74
2022/08/29 13:48:27;;;;;;;0.03;0.03;;;;;;;;;;5013213;28;20659;-74
2022/08/29 13:50:52;;;;;;;0.10;0.10;;;;;;;;;;5009644;28;20273;-74
2022/08/29 13:53:18;;;;;;;0.00;0.00;;;;;;;;;;4992568;28;20220;-74
2022/08/29 13:55:43;;;;;;;0.00;0.00;;;;;;;;;;5014198;28;20478;-74
2022/08/29 13:58:08;;;;;;;0.10;0.10;;;;;;;;;;5017155;28;20710;-74
2022/08/29 14:00:34;;;;;;;0.57;0.17;;;;;;;;;;5017815;28;20774;-74
2022/08/29 14:03:00;;;;;;;0.20;0.20;;;;;;;;;;5015697;28;20215;-74
2022/08/29 14:05:25;;;;;;;2.13;0.88;;;;;;;;;;5017299;28;20235;-74
2022/08/29 14:07:51;;;;;;;0.30;0.30;;;;;;;;;;5015791;28;20297;-74
2022/08/29 14:10:16;;;;;;;0.20;0.20;;;;;;;;;;5014029;28;20212;-73
2022/08/29 14:12:42;;;;;;;3.90;0.43;;;;;;;;;;4994079;28;20313;-70
2022/08/29 14:15:08;;;;;;;0.20;0.10;;;;;;;;;;4993965;28;20232;-72
2022/08/29 14:17:33;;;;;;;0.17;0.17;;;;;;;;;;4992163;28;20216;-74
2022/08/29 14:19:59;;;;;;;0.00;0.00;;;;;;;;;;5030343;28;20212;-74
2022/08/29 14:22:24;;;;;;;0.28;0.15;;;;;;;;;;4998766;28;20208;-73
2022/08/29 14:24:51;;;;;;;0.22;0.10;;;;;;;;;;4998401;28;20429;-74
2022/08/29 14:27:17;;;;;;;0.08;0.08;;;;;;;;;;4999671;28;20213;-73
2022/08/29 14:29:42;;;;;;;0.10;0.10;;;;;;;;;;5004744;28;20224;-74
2022/08/29 14:32:08;;;;;;;0.20;0.20;;;;;;;;;;4997322;28;20311;-73
2022/08/29 14:34:33;;;;;;;0.15;0.03;;;;;;;;;;5024890;28;20224;-74
2022/08/29 14:36:59;;;;;;;0.10;0.10;;;;;;;;;;4991331;28;20212;-75
2022/08/29 14:39:24;;;;;;;0.47;0.10;;;;;;;;;;4991899;28;20442;-74
2022/08/29 14:41:50;;;;;;;0.40;0.30;;;;;;;;;;4997043;28;20212;-74
2022/08/29 14:44:15;;;;;;;0.20;0.20;;;;;;;;;;4997311;28;20817;-73
2022/08/29 14:46:40;;;;;;;5.50;2.10;;;;;;;;;;5001149;28;20278;-74